Cannon Air Force Base
KCVS : now visible

Airfield :











YOU CAN JOIN US ON...

 
LOGIN :

Register | Disclaimer

   EN    FR    IT 

 









Legend :    VFR   Marginal VFR   IFR   Intensive IFR   Very Intensive IFR
Visi :
Ceiling :
>= 8 km
>= 3000ft
5 to 8 km
1000 to 3000 ft
1500m to 5 km
500 to 1000 ft
800 to 1500m
200 to 500 ft
< 800m
< 200 ft
Symbols :   Thunderstorms  Fog  Heavy snow  Heavy precipitations  Wind > 20 kt






- Airport Elevation : 4295 ft


KCVS - Cannon Air Force Base

CURRENT METAR :
  • 110258Z 14008KT 10SM CLR 25/14 A3000 RMK AO2A SLP096 T02470142 53005 $

EXPIRED METARs :
  • 110158Z AUTO 15012KT 10SM CLR 28/13 A2998 RMK AO2 SLP089 T02770129 $
  • 110058Z AUTO 15011KT 10SM FEW130 SCT160 32/13 A2997 RMK AO2 SLP083 T03150132 $

TAF TAF KCVS
Valid from the 11 at 02:00 until the 12 at 08:00 UTC


110200Z 1102/1208 16010KT 9999 SCT130 QNH2996INS
BECMG 1106/1107 20008KT 9999 FEW150 WS020/21040KT QNH3004INS
BECMG 1113/1114 22012KT 9999 SKC QNH2997INS
BECMG 1120/1121 22012G18KT 9999 VCSH SCT150 QNH2994INS
BECMG 1201/1202 17008KT 9999 NSW FEW130 SCT140 QNH2994INS TX38/1120Z TN19/1112Z
KZAB FIR / North America



MET'MAP, your aeronautical weather chart ! - Copyright ORBIFLY December 2007 - Disclaimer

ORBIFLY MET'MAP TEAM :

Programming & Development : Alexandra Zaïnal
Concept & original design : Baudouin d'Aumeries
Assistance for programming : Marc-Olivier Méhu
Technical & hardware support : Manuel Goepfert

Contact : metmap@orbifly.com




SOURCES & CREDITS :

   NOAA       Earth
Advisory